createdAt,value
2018-09-29T00:01:55.529Z,6.17
2018-09-29T00:04:23.609Z,11.45
2018-09-29T00:06:51.724Z,16.65
2018-09-29T00:09:19.870Z,2.52
2018-09-29T00:11:47.950Z,3.72
2018-09-29T00:14:16.005Z,2.33
2018-09-29T00:16:44.068Z,2.85
2018-09-29T00:19:12.154Z,4.33
2018-09-29T00:21:40.220Z,2.87
2018-09-29T00:24:08.276Z,1.90
2018-09-29T00:26:36.366Z,4.62
2018-09-29T00:29:04.539Z,14.98
2018-09-29T00:31:32.597Z,6.87
2018-09-29T00:34:00.681Z,2.83
2018-09-29T00:36:28.741Z,2.35
2018-09-29T00:38:56.795Z,9.00
2018-09-29T00:41:24.864Z,1.50
2018-09-29T00:43:52.929Z,6.75
2018-09-29T00:46:21.001Z,3.90
2018-09-29T00:48:49.097Z,4.28
2018-09-29T00:51:17.157Z,2.10
2018-09-29T00:53:45.222Z,2.60
2018-09-29T00:56:13.321Z,2.95
2018-09-29T00:58:41.373Z,2.25
2018-09-29T01:01:09.441Z,3.47
2018-09-29T01:03:37.498Z,8.13
2018-09-29T01:06:05.558Z,4.62
2018-09-29T01:08:33.617Z,3.12
2018-09-29T01:11:01.697Z,1.77
2018-09-29T01:13:29.768Z,9.48
2018-09-29T01:15:57.822Z,5.10
2018-09-29T01:18:25.907Z,2.25
2018-09-29T01:20:53.966Z,4.45
2018-09-29T01:23:22.043Z,6.67
2018-09-29T01:25:50.089Z,7.47
2018-09-29T01:28:18.149Z,2.65
2018-09-29T01:30:46.200Z,3.08
2018-09-29T01:33:14.287Z,10.25
2018-09-29T01:35:42.355Z,2.90
2018-09-29T01:38:10.413Z,2.87
2018-09-29T01:40:38.465Z,5.75
2018-09-29T01:43:06.742Z,3.17
2018-09-29T01:45:34.801Z,11.90
2018-09-29T01:48:02.976Z,1.85
2018-09-29T01:50:31.034Z,3.50
2018-09-29T01:52:59.221Z,2.22
2018-09-29T01:55:27.285Z,3.58
2018-09-29T01:57:55.364Z,3.33
2018-09-29T02:00:23.437Z,1.92
2018-09-29T02:02:51.501Z,2.83
2018-09-29T02:05:19.569Z,2.30
2018-09-29T02:07:47.654Z,2.05
2018-09-29T02:10:15.713Z,2.25
2018-09-29T02:12:43.781Z,2.50
2018-09-29T02:15:11.841Z,3.22
2018-09-29T02:17:39.929Z,1.60
2018-09-29T02:20:08.050Z,4.85
2018-09-29T02:22:36.169Z,1.50
2018-09-29T02:25:04.233Z,2.30
2018-09-29T02:27:32.297Z,2.70
2018-09-29T02:30:00.364Z,6.12
2018-09-29T02:32:28.441Z,7.37
2018-09-29T02:34:56.493Z,4.25
2018-09-29T02:37:24.558Z,1.50
2018-09-29T02:39:52.654Z,3.55
2018-09-29T02:42:20.733Z,2.62
2018-09-29T02:44:48.826Z,5.35
2018-09-29T02:47:16.885Z,2.45
2018-09-29T02:49:45.029Z,4.33
2018-09-29T02:52:13.107Z,2.67
2018-09-29T02:54:41.161Z,1.70
2018-09-29T02:57:09.344Z,8.60
2018-09-29T02:59:37.653Z,7.90
2018-09-29T03:02:05.789Z,2.47
2018-09-29T03:04:33.868Z,1.85
2018-09-29T03:07:01.942Z,2.58
2018-09-29T03:09:30.010Z,1.75
2018-09-29T03:11:58.077Z,4.33
2018-09-29T03:14:26.149Z,2.65
2018-09-29T03:16:54.196Z,3.45
2018-09-29T03:19:22.278Z,2.40
2018-09-29T03:21:50.358Z,6.10
2018-09-29T03:24:18.421Z,8.43
2018-09-29T03:26:46.481Z,1.72
2018-09-29T03:29:14.541Z,5.12
2018-09-29T03:31:42.857Z,2.72
2018-09-29T03:34:10.702Z,2.75
2018-09-29T03:36:38.776Z,4.45
2018-09-29T03:39:08.572Z,1.50
2018-09-29T03:41:36.850Z,1.57
2018-09-29T03:44:04.937Z,1.77
2018-09-29T03:46:32.998Z,8.60
2018-09-29T03:49:01.078Z,2.02
2018-09-29T03:51:29.126Z,1.52
2018-09-29T03:53:57.323Z,1.50
2018-09-29T03:56:25.389Z,2.12
2018-09-29T03:58:53.451Z,2.35
2018-09-29T04:01:21.520Z,1.52
2018-09-29T04:03:49.626Z,2.52
2018-09-29T04:06:17.681Z,2.22
2018-09-29T04:08:45.754Z,2.33
2018-09-29T04:11:13.842Z,3.77
2018-09-29T04:13:41.978Z,1.40
2018-09-29T04:16:10.006Z,2.58
2018-09-29T04:18:38.118Z,2.95
2018-09-29T04:21:06.289Z,5.60
2018-09-29T04:23:34.349Z,1.30
2018-09-29T04:26:02.423Z,2.45
2018-09-29T04:28:30.496Z,1.37
2018-09-29T04:30:58.559Z,2.70
2018-09-29T04:33:26.644Z,6.90
2018-09-29T04:35:54.702Z,2.30
2018-09-29T04:38:22.774Z,1.30
2018-09-29T04:40:50.881Z,4.72
2018-09-29T04:43:19.000Z,2.47
2018-09-29T04:45:47.071Z,3.25
2018-09-29T04:48:15.165Z,3.17
2018-09-29T04:50:43.234Z,2.30
2018-09-29T04:53:11.298Z,1.37
2018-09-29T04:55:39.372Z,2.67
2018-09-29T04:58:07.447Z,8.10
2018-09-29T05:00:35.518Z,5.33
2018-09-29T05:03:03.569Z,2.05
2018-09-29T05:05:31.624Z,1.70
2018-09-29T05:07:59.676Z,2.47
2018-09-29T05:10:27.798Z,2.15
2018-09-29T05:12:55.849Z,2.25
2018-09-29T05:15:23.936Z,1.82
2018-09-29T05:17:52.013Z,2.15
2018-09-29T05:20:20.070Z,3.10
2018-09-29T05:22:48.129Z,3.17
2018-09-29T05:25:16.183Z,2.60
2018-09-29T05:27:44.248Z,4.40
2018-09-29T05:30:12.323Z,1.70
2018-09-29T05:32:40.392Z,4.20
2018-09-29T05:35:08.497Z,2.15
2018-09-29T05:37:36.562Z,3.87
2018-09-29T05:40:04.668Z,1.98
2018-09-29T05:42:32.761Z,3.47
2018-09-29T05:45:00.868Z,1.82
2018-09-29T05:47:28.930Z,4.42
2018-09-29T05:49:57.017Z,2.72
2018-09-29T05:52:25.069Z,3.45
2018-09-29T05:54:53.127Z,1.50
2018-09-29T05:57:21.182Z,2.75
2018-09-29T05:59:49.302Z,5.85
2018-09-29T06:02:17.425Z,7.42
2018-09-29T06:04:45.493Z,2.95
2018-09-29T06:07:13.643Z,1.70
2018-09-29T06:09:41.650Z,2.72
2018-09-29T06:12:09.740Z,2.22
2018-09-29T06:14:37.810Z,1.50
2018-09-29T06:17:05.865Z,2.40
2018-09-29T06:19:33.960Z,4.25
2018-09-29T06:22:02.021Z,3.02
2018-09-29T06:24:30.093Z,5.95
2018-09-29T06:26:58.145Z,3.62
2018-09-29T06:29:26.221Z,3.47
2018-09-29T06:31:54.274Z,1.70
2018-09-29T06:34:23.449Z,1.70
2018-09-29T06:36:51.490Z,1.57
2018-09-29T06:39:19.513Z,2.27
2018-09-29T06:41:47.619Z,3.90
2018-09-29T06:44:15.677Z,5.65
2018-09-29T06:46:43.745Z,5.15
2018-09-29T06:49:11.819Z,1.95
2018-09-29T06:51:39.889Z,2.45
2018-09-29T06:54:07.943Z,1.40
2018-09-29T06:56:35.999Z,6.90
2018-09-29T06:59:04.055Z,2.37
2018-09-29T07:01:32.125Z,3.22
2018-09-29T07:04:00.243Z,3.80
2018-09-29T07:06:28.312Z,16.87
2018-09-29T07:08:56.478Z,1.90
2018-09-29T07:11:24.564Z,4.45
2018-09-29T07:13:52.617Z,1.50
2018-09-29T07:16:20.693Z,1.75
2018-09-29T07:18:48.769Z,2.62
2018-09-29T07:21:16.837Z,3.27
2018-09-29T07:23:44.885Z,4.03
2018-09-29T07:26:12.979Z,6.15
2018-09-29T07:28:41.040Z,7.30
2018-09-29T07:31:09.109Z,8.23
2018-09-29T07:33:37.181Z,1.98
2018-09-29T07:36:05.254Z,3.27
2018-09-29T07:38:33.306Z,3.05
2018-09-29T07:41:01.402Z,1.60
2018-09-29T07:43:29.477Z,1.75
2018-09-29T07:45:57.617Z,4.67
2018-09-29T07:48:25.716Z,1.82
2018-09-29T07:50:53.773Z,2.42
2018-09-29T07:53:21.830Z,2.22
2018-09-29T07:55:49.960Z,5.60
2018-09-29T07:58:17.997Z,2.75
2018-09-29T08:00:46.085Z,5.78
2018-09-29T08:03:14.195Z,2.27
2018-09-29T08:05:42.269Z,2.67
2018-09-29T08:08:10.334Z,3.00
2018-09-29T08:10:39.023Z,9.13
2018-09-29T08:13:07.535Z,2.87
2018-09-29T08:15:36.121Z,1.70
2018-09-29T08:18:05.152Z,2.45
2018-09-29T08:20:34.116Z,3.37
2018-09-29T08:23:02.607Z,1.75
2018-09-29T08:25:31.171Z,1.77
2018-09-29T08:27:59.851Z,3.45
2018-09-29T08:30:28.518Z,3.02
2018-09-29T08:32:57.129Z,2.20
2018-09-29T08:35:25.780Z,4.90
2018-09-29T08:37:54.395Z,2.45
2018-09-29T08:40:22.829Z,3.10
2018-09-29T08:42:51.217Z,5.75
2018-09-29T08:45:19.797Z,5.45
2018-09-29T08:47:48.576Z,6.35
2018-09-29T08:50:16.665Z,1.90
2018-09-29T08:52:44.737Z,10.25
2018-09-29T08:55:12.801Z,3.90
2018-09-29T08:57:40.872Z,4.40
2018-09-29T09:00:08.941Z,3.45
2018-09-29T09:02:37.225Z,9.18
2018-09-29T09:05:05.294Z,1.60
2018-09-29T09:07:33.441Z,2.37
2018-09-29T09:10:01.523Z,3.22
2018-09-29T09:12:29.608Z,2.35
2018-09-29T09:14:57.678Z,2.62
2018-09-29T09:17:25.756Z,4.05
2018-09-29T09:19:53.818Z,2.12
2018-09-29T09:22:21.902Z,14.98
2018-09-29T09:24:49.965Z,4.40
2018-09-29T09:27:18.047Z,3.00
2018-09-29T09:29:46.163Z,8.55
2018-09-29T09:32:14.239Z,12.55
2018-09-29T09:34:42.315Z,5.15
2018-09-29T09:37:10.413Z,2.12
2018-09-29T09:39:38.471Z,4.70
2018-09-29T09:42:06.554Z,8.80
2018-09-29T09:44:34.609Z,7.20
2018-09-29T09:47:02.706Z,2.62
2018-09-29T09:49:30.847Z,3.17
2018-09-29T09:51:58.864Z,4.35
2018-09-29T09:54:26.924Z,4.55
2018-09-29T09:56:54.992Z,3.08
2018-09-29T09:59:23.053Z,3.75
2018-09-29T10:01:56.722Z,5.05
2018-09-29T10:04:24.921Z,6.35
2018-09-29T10:06:53.086Z,5.00
2018-09-29T10:09:21.153Z,5.90
2018-09-29T10:11:49.235Z,5.40
2018-09-29T10:14:17.317Z,921.37
2018-09-29T10:16:45.393Z,379.80
2018-09-29T10:19:21.671Z,237.15
2018-09-29T10:21:49.747Z,80.62
2018-09-29T10:24:17.832Z,167.95
2018-09-29T10:26:45.957Z,106.27
2018-09-29T10:29:14.030Z,83.78
2018-09-29T10:31:42.103Z,54.70
2018-09-29T10:34:10.202Z,29.27
2018-09-29T10:36:38.308Z,24.82
2018-09-29T10:39:08.614Z,30.70
2018-09-29T10:41:36.693Z,19.90
2018-09-29T10:44:04.812Z,24.43
2018-09-29T10:46:32.853Z,15.65
2018-09-29T10:49:00.965Z,16.32
2018-09-29T10:51:29.029Z,25.85
2018-09-29T10:53:57.105Z,9.08
2018-09-29T10:56:25.184Z,11.73
2018-09-29T10:58:53.324Z,13.53
2018-09-29T11:01:21.409Z,9.70
2018-09-29T11:03:49.524Z,13.95
2018-09-29T11:06:17.597Z,12.65
2018-09-29T11:08:45.698Z,8.53
2018-09-29T11:11:14.103Z,9.48
2018-09-29T11:13:42.212Z,10.58
2018-09-29T11:16:10.286Z,9.13
2018-09-29T11:18:38.430Z,5.90
2018-09-29T11:21:06.514Z,7.72
2018-09-29T11:23:34.602Z,9.15
2018-09-29T11:26:02.665Z,7.45
2018-09-29T11:28:30.776Z,5.28
2018-09-29T11:30:58.845Z,7.45
2018-09-29T11:33:27.029Z,7.70
2018-09-29T11:35:55.111Z,4.97
2018-09-29T11:38:23.198Z,6.33
2018-09-29T11:40:51.275Z,8.38
2018-09-29T11:43:19.377Z,6.97
2018-09-29T11:45:47.828Z,8.08
2018-09-29T11:48:16.344Z,7.97
2018-09-29T11:50:44.910Z,5.30
2018-09-29T11:53:13.504Z,5.65
2018-09-29T11:55:43.218Z,3.90
2018-09-29T11:58:11.317Z,9.38
2018-09-29T12:00:39.429Z,5.60
2018-09-29T12:03:07.549Z,3.15
2018-09-29T12:05:35.657Z,3.75
2018-09-29T12:08:03.827Z,5.15
2018-09-29T12:10:33.570Z,4.75
2018-09-29T12:13:02.196Z,6.17
2018-09-29T12:15:30.674Z,5.85
2018-09-29T12:17:59.471Z,6.62
2018-09-29T12:20:28.106Z,7.30
2018-09-29T12:22:56.690Z,10.48
2018-09-29T12:25:25.700Z,5.12
2018-09-29T12:27:54.564Z,4.47
2018-09-29T12:30:23.071Z,8.50
2018-09-29T12:32:52.423Z,7.05
2018-09-29T12:35:20.970Z,5.97
2018-09-29T12:37:49.781Z,5.90
2018-09-29T12:40:18.376Z,7.80
2018-09-29T12:42:46.458Z,9.30
2018-09-29T12:45:14.577Z,8.20
2018-09-29T12:47:42.784Z,6.15
2018-09-29T12:50:10.839Z,4.78
2018-09-29T12:52:38.885Z,6.75
2018-09-29T12:55:06.972Z,6.58
2018-09-29T12:57:35.037Z,4.78
2018-09-29T13:00:03.142Z,4.20
2018-09-29T13:02:31.246Z,5.00
2018-09-29T13:04:59.347Z,5.12
2018-09-29T13:07:27.410Z,3.62
2018-09-29T13:09:55.489Z,2.70
2018-09-29T13:12:23.562Z,6.80
2018-09-29T13:14:51.653Z,11.12
2018-09-29T13:17:19.725Z,3.05
2018-09-29T13:19:47.812Z,4.97
2018-09-29T13:22:15.878Z,3.30
2018-09-29T13:24:43.959Z,4.35
2018-09-29T13:27:12.034Z,3.40
2018-09-29T13:29:40.218Z,10.68
2018-09-29T13:32:08.222Z,3.75
2018-09-29T13:34:36.422Z,3.65
2018-09-29T13:37:04.521Z,7.90
2018-09-29T13:39:32.625Z,4.03
2018-09-29T13:42:00.837Z,4.10
2018-09-29T13:44:29.118Z,5.15
2018-09-29T13:46:57.248Z,7.22
2018-09-29T13:49:25.417Z,5.85
2018-09-29T13:51:53.557Z,3.98
2018-09-29T13:54:21.645Z,4.85
2018-09-29T13:56:49.754Z,5.10
2018-09-29T13:59:17.931Z,6.47
2018-09-29T14:01:46.022Z,4.12
2018-09-29T14:04:14.114Z,3.15
2018-09-29T14:06:42.193Z,3.47
2018-09-29T14:09:10.862Z,5.12
2018-09-29T14:11:38.946Z,3.30
2018-09-29T14:14:07.827Z,5.72
2018-09-29T14:16:35.930Z,4.90
2018-09-29T14:19:04.198Z,8.43
2018-09-29T14:21:32.329Z,2.80
2018-09-29T14:24:00.401Z,4.78
2018-09-29T14:26:28.482Z,10.53
2018-09-29T14:28:56.566Z,6.08
2018-09-29T14:31:24.674Z,2.20
2018-09-29T14:33:52.761Z,6.75
2018-09-29T14:36:20.853Z,4.87
2018-09-29T14:38:49.105Z,7.03
2018-09-29T14:41:17.184Z,4.65
2018-09-29T14:43:45.369Z,5.65
2018-09-29T14:46:13.442Z,5.58
2018-09-29T14:48:41.551Z,7.03
2018-09-29T14:51:09.622Z,6.90
2018-09-29T14:53:37.693Z,7.67
2018-09-29T14:56:05.774Z,5.42
2018-09-29T14:58:33.850Z,7.55
2018-09-29T15:01:01.956Z,4.12
2018-09-29T15:03:30.025Z,6.83
2018-09-29T15:05:58.134Z,5.62
2018-09-29T15:08:26.330Z,4.80
2018-09-29T15:10:54.487Z,9.33
2018-09-29T15:13:22.753Z,2.80
2018-09-29T15:15:51.083Z,5.75
2018-09-29T15:18:19.189Z,8.40
2018-09-29T15:20:47.273Z,4.28
2018-09-29T15:23:15.377Z,7.70
2018-09-29T15:25:43.465Z,7.00
2018-09-29T15:28:11.673Z,5.62
2018-09-29T15:30:39.779Z,4.50
2018-09-29T15:33:07.906Z,5.25
2018-09-29T15:35:36.060Z,6.72
2018-09-29T15:38:04.173Z,6.17
2018-09-29T15:40:32.242Z,8.98
2018-09-29T15:43:00.538Z,6.05
2018-09-29T15:45:28.465Z,9.58
2018-09-29T15:47:56.593Z,8.18
2018-09-29T15:50:24.711Z,5.45
2018-09-29T15:52:52.971Z,11.55
2018-09-29T15:55:21.208Z,12.98
2018-09-29T15:57:49.240Z,10.20
2018-09-29T16:00:17.344Z,15.60
2018-09-29T16:02:45.441Z,6.95
2018-09-29T16:05:13.515Z,7.65
2018-09-29T16:07:41.674Z,11.18
2018-09-29T16:10:09.822Z,11.90
2018-09-29T16:12:38.001Z,9.40
2018-09-29T16:15:06.282Z,6.62
2018-09-29T16:17:34.349Z,6.85
2018-09-29T16:20:02.427Z,5.90
2018-09-29T16:22:30.509Z,6.90
2018-09-29T16:24:59.617Z,6.30
2018-09-29T16:27:27.689Z,7.15
2018-09-29T16:29:55.855Z,6.92
2018-09-29T16:32:23.966Z,5.80
2018-09-29T16:34:52.062Z,6.97
2018-09-29T16:37:20.155Z,5.25
2018-09-29T16:39:48.246Z,5.28
2018-09-29T16:42:16.387Z,5.75
2018-09-29T16:44:44.483Z,7.37
2018-09-29T16:47:12.578Z,7.60
2018-09-29T16:49:40.705Z,5.10
2018-09-29T16:52:08.790Z,4.95
2018-09-29T16:54:36.894Z,6.37
2018-09-29T16:57:04.995Z,5.65
2018-09-29T16:59:33.082Z,7.08
2018-09-29T17:02:01.162Z,9.35
2018-09-29T17:04:29.316Z,7.40
2018-09-29T17:06:57.433Z,3.87
2018-09-29T17:09:25.497Z,5.72
2018-09-29T17:11:54.404Z,4.95
2018-09-29T17:14:22.481Z,7.65
2018-09-29T17:16:50.557Z,5.58
2018-09-29T17:19:18.729Z,9.33
2018-09-29T17:21:46.835Z,6.45
2018-09-29T17:24:14.893Z,3.92
2018-09-29T17:26:42.965Z,5.42
2018-09-29T17:29:11.051Z,5.90
2018-09-29T17:31:39.163Z,5.60
2018-09-29T17:34:07.227Z,7.12
2018-09-29T17:36:35.297Z,5.60
2018-09-29T17:39:03.882Z,8.00
2018-09-29T17:41:31.957Z,5.85
2018-09-29T17:44:00.022Z,5.40
2018-09-29T17:46:28.095Z,8.03
2018-09-29T17:48:56.253Z,8.55
2018-09-29T17:51:24.398Z,7.85
2018-09-29T17:53:52.441Z,20.50
2018-09-29T17:56:20.522Z,5.17
2018-09-29T17:58:48.805Z,4.53
2018-09-29T18:01:16.912Z,4.80
2018-09-29T18:03:44.985Z,5.20
2018-09-29T18:06:13.056Z,2.65
2018-09-29T18:08:41.178Z,3.75
2018-09-29T18:11:09.272Z,3.72
2018-09-29T18:13:37.441Z,1.98
2018-09-29T18:16:05.449Z,2.30
2018-09-29T18:18:33.530Z,4.30
2018-09-29T18:21:01.593Z,5.40
2018-09-29T18:23:29.698Z,3.62
2018-09-29T18:25:57.762Z,9.05
2018-09-29T18:28:26.010Z,2.77
2018-09-29T18:30:54.069Z,3.95
2018-09-29T18:33:22.159Z,4.97
2018-09-29T18:35:50.324Z,4.58
2018-09-29T18:38:18.321Z,6.25
2018-09-29T18:40:46.386Z,4.50
2018-09-29T18:43:14.473Z,5.72
2018-09-29T18:45:42.577Z,14.45
2018-09-29T18:48:10.650Z,10.28
2018-09-29T18:50:38.725Z,20.20
2018-09-29T18:53:06.793Z,9.18
2018-09-29T18:55:34.872Z,13.55
2018-09-29T18:58:02.951Z,6.65
2018-09-29T19:00:31.054Z,1999.90
2018-09-29T19:02:59.309Z,1999.90
2018-09-29T19:05:27.397Z,1999.90
2018-09-29T19:07:55.529Z,1717.08
2018-09-29T19:10:23.614Z,1398.68
2018-09-29T19:12:51.753Z,1129.75
2018-09-29T19:15:19.809Z,926.90
2018-09-29T19:17:47.897Z,640.23
2018-09-29T19:20:16.005Z,595.10
2018-09-29T19:22:44.078Z,463.20
2018-09-29T19:25:12.185Z,364.23
2018-09-29T19:27:40.286Z,300.00
2018-09-29T19:30:08.397Z,241.05
2018-09-29T19:32:36.489Z,45.15
2018-09-29T19:35:04.601Z,16.75
2018-09-29T19:37:32.695Z,11.57
2018-09-29T19:40:00.782Z,6.55
2018-09-29T19:42:28.858Z,5.62
2018-09-29T19:44:56.942Z,6.03
2018-09-29T19:47:25.130Z,5.80
2018-09-29T19:49:53.221Z,8.48
2018-09-29T19:52:21.293Z,5.12
2018-09-29T19:54:49.369Z,6.35
2018-09-29T19:57:17.441Z,6.75
2018-09-29T19:59:45.534Z,15.58
2018-09-29T20:02:13.634Z,4.62
2018-09-29T20:04:41.753Z,11.55
2018-09-29T20:07:09.834Z,7.33
2018-09-29T20:09:37.935Z,4.15
2018-09-29T20:12:06.025Z,4.20
2018-09-29T20:14:34.118Z,3.47
2018-09-29T20:17:02.196Z,3.25
2018-09-29T20:19:30.272Z,6.05
2018-09-29T20:21:58.373Z,2.33
2018-09-29T20:24:26.528Z,3.90
2018-09-29T20:26:54.573Z,10.68
2018-09-29T20:29:22.660Z,4.80
2018-09-29T20:31:50.802Z,3.95
2018-09-29T20:34:18.915Z,3.10
2018-09-29T20:36:47.002Z,3.42
2018-09-29T20:39:15.122Z,3.00
2018-09-29T20:41:43.521Z,2.58
2018-09-29T20:44:11.809Z,3.05
2018-09-29T20:46:39.893Z,3.08
2018-09-29T20:49:08.661Z,3.87
2018-09-29T20:51:37.065Z,5.50
2018-09-29T20:54:05.437Z,2.15
2018-09-29T20:56:33.531Z,3.70
2018-09-29T20:59:01.610Z,7.55
2018-09-29T21:01:29.709Z,2.92
2018-09-29T21:03:57.818Z,2.45
2018-09-29T21:06:26.165Z,2.90
2018-09-29T21:08:54.250Z,2.55
2018-09-29T21:11:22.326Z,6.55
2018-09-29T21:13:50.471Z,3.87
2018-09-29T21:16:18.550Z,2.90
2018-09-29T21:18:46.618Z,6.72
2018-09-29T21:21:14.714Z,6.28
2018-09-29T21:23:42.793Z,7.50
2018-09-29T21:26:10.924Z,2.22
2018-09-29T21:28:39.009Z,3.50
2018-09-29T21:31:07.097Z,4.15
2018-09-29T21:33:35.185Z,2.80
2018-09-29T21:36:03.281Z,4.70
2018-09-29T21:38:31.390Z,4.58
2018-09-29T21:40:59.461Z,3.75
2018-09-29T21:43:27.538Z,45.63
2018-09-29T21:45:55.633Z,47.78
2018-09-29T21:48:23.701Z,39.25
2018-09-29T21:50:51.768Z,34.55
2018-09-29T21:53:20.091Z,16.23
2018-09-29T21:55:48.166Z,20.60
2018-09-29T21:58:16.466Z,28.70
2018-09-29T22:00:45.465Z,22.65
2018-09-29T22:03:14.854Z,18.27
2018-09-29T22:05:43.233Z,14.55
2018-09-29T22:08:11.496Z,9.25
2018-09-29T22:10:39.568Z,19.23
2018-09-29T22:13:07.662Z,17.82
2018-09-29T22:15:35.753Z,8.98
2018-09-29T22:18:03.825Z,20.48
2018-09-29T22:20:31.881Z,6.12
2018-09-29T22:22:59.941Z,5.62
2018-09-29T22:25:28.009Z,7.97
2018-09-29T22:27:56.070Z,4.78
2018-09-29T22:30:24.153Z,3.80
2018-09-29T22:32:52.308Z,8.18
2018-09-29T22:35:20.385Z,5.30
2018-09-29T22:37:48.452Z,4.60
2018-09-29T22:40:16.517Z,5.10
2018-09-29T22:42:44.582Z,3.22
2018-09-29T22:45:12.669Z,13.62
2018-09-29T22:47:40.729Z,5.58
2018-09-29T22:50:08.798Z,7.85
2018-09-29T22:52:36.877Z,7.55
2018-09-29T22:55:04.940Z,2.72
2018-09-29T22:57:33.039Z,4.60
2018-09-29T23:00:01.081Z,4.30
2018-09-29T23:02:29.161Z,3.10
2018-09-29T23:04:57.230Z,2.10
2018-09-29T23:07:25.321Z,2.25
2018-09-29T23:09:53.373Z,3.10
2018-09-29T23:12:21.442Z,5.92
2018-09-29T23:14:49.497Z,4.17
2018-09-29T23:17:17.568Z,5.40
2018-09-29T23:19:45.626Z,2.02
2018-09-29T23:22:13.690Z,5.65
2018-09-29T23:24:41.785Z,6.35
2018-09-29T23:27:09.850Z,2.70
2018-09-29T23:29:37.916Z,1.77
2018-09-29T23:32:06.009Z,3.47
2018-09-29T23:34:34.099Z,2.87
2018-09-29T23:37:02.166Z,2.70
2018-09-29T23:39:30.228Z,2.37
2018-09-29T23:41:58.314Z,2.33
2018-09-29T23:44:26.451Z,2.10
2018-09-29T23:46:54.633Z,2.98
2018-09-29T23:49:22.690Z,4.05
2018-09-29T23:51:50.765Z,3.77
2018-09-29T23:54:18.822Z,6.78
2018-09-29T23:56:46.908Z,3.25
2018-09-29T23:59:14.958Z,7.35
